Time;durP1;ratioP1;P1;durP2;ratioP2;P2;SDS_P1;SDS_P2;PMS_P1;PMS_P2;Temp;Humidity;BMP_temperature;BMP_pressure;BME280_temperature;BME280_humidity;BME280_pressure;Samples;Min_cycle;Max_cycle;Signal;HPM_P1;HPM_P2
2021/08/14 00:00:51;;;;;;;20.50;3.95;;;20.50;73.50;;;;;;5040696;28;20490;-74
2021/08/14 00:03:17;;;;;;;14.43;3.90;;;20.50;73.60;;;;;;5047130;28;20547;-74
2021/08/14 00:05:42;;;;;;;11.75;3.40;;;20.40;73.60;;;;;;5036866;28;20033;-75
2021/08/14 00:08:08;;;;;;;8.32;3.08;;;20.40;73.10;;;;;;5049873;28;20037;-74
2021/08/14 00:10:34;;;;;;;14.02;3.60;;;20.40;73.00;;;;;;5037862;28;20056;-74
2021/08/14 00:12:59;;;;;;;18.83;3.58;;;20.40;73.00;;;;;;5050245;28;20022;-74
2021/08/14 00:15:25;;;;;;;19.40;3.80;;;20.40;72.90;;;;;;5050179;28;20032;-74
2021/08/14 00:17:51;;;;;;;17.95;4.85;;;20.40;73.30;;;;;;5047517;28;20021;-74
2021/08/14 00:20:17;;;;;;;15.43;4.13;;;20.30;73.10;;;;;;5052231;28;20033;-74
2021/08/14 00:22:43;;;;;;;14.07;4.07;;;20.30;73.30;;;;;;5050599;28;20112;-74
2021/08/14 00:25:09;;;;;;;17.80;4.90;;;20.30;73.50;;;;;;5042732;28;20032;-74
2021/08/14 00:27:35;;;;;;;16.13;4.50;;;20.30;73.70;;;;;;5049591;28;20039;-74
2021/08/14 00:30:00;;;;;;;15.68;4.03;;;20.30;73.90;;;;;;5045890;28;20030;-74
2021/08/14 00:32:26;;;;;;;16.08;3.72;;;20.30;74.20;;;;;;5042357;28;20104;-74
2021/08/14 00:34:52;;;;;;;17.35;3.92;;;20.20;74.30;;;;;;5051451;28;20107;-75
2021/08/14 00:37:20;;;;;;;15.65;3.88;;;20.30;74.10;;;;;;5048516;28;20026;-74
2021/08/14 00:39:46;;;;;;;16.80;3.95;;;20.20;74.30;;;;;;5051087;28;20068;-74
2021/08/14 00:42:12;;;;;;;13.82;2.92;;;20.30;74.10;;;;;;5050268;28;20112;-74
2021/08/14 00:44:37;;;;;;;12.52;4.45;;;20.20;73.80;;;;;;5051504;28;20463;-74
2021/08/14 00:47:04;;;;;;;14.77;3.80;;;20.20;74.00;;;;;;5050921;28;20053;-74
2021/08/14 00:49:30;;;;;;;10.82;3.28;;;20.20;73.90;;;;;;5051980;28;20052;-74
2021/08/14 00:51:56;;;;;;;21.65;4.22;;;20.20;74.00;;;;;;5052140;28;20045;-74
2021/08/14 00:54:22;;;;;;;12.90;3.35;;;20.10;74.00;;;;;;5039985;28;20036;-74
2021/08/14 00:56:48;;;;;;;16.88;4.15;;;20.10;74.10;;;;;;5044366;28;20033;-75
2021/08/14 00:59:14;;;;;;;14.25;3.90;;;20.10;73.90;;;;;;5050037;28;20060;-75
2021/08/14 01:01:40;;;;;;;19.83;4.30;;;20.00;73.90;;;;;;5051244;28;20056;-74
2021/08/14 01:04:11;;;;;;;8.88;3.05;;;20.10;74.20;;;;;;5051223;28;20056;-74
2021/08/14 01:06:36;;;;;;;15.30;3.92;;;20.00;73.50;;;;;;5041393;28;20025;-74
2021/08/14 01:09:02;;;;;;;10.18;3.15;;;20.00;73.70;;;;;;5050151;28;20025;-74
2021/08/14 01:11:29;;;;;;;12.27;3.50;;;20.00;73.80;;;;;;5047427;28;20040;-74
2021/08/14 01:13:56;;;;;;;15.13;3.92;;;20.00;73.90;;;;;;5048370;28;20025;-74
2021/08/14 01:16:22;;;;;;;14.18;3.05;;;20.00;74.10;;;;;;5051466;28;20037;-74
2021/08/14 01:18:48;;;;;;;23.42;4.15;;;19.90;74.10;;;;;;5042728;28;20033;-75
2021/08/14 01:21:18;;;;;;;16.33;4.10;;;20.00;73.90;;;;;;5048277;28;20032;-74
2021/08/14 01:23:45;;;;;;;10.98;3.42;;;19.90;74.20;;;;;;5049648;28;20017;-74
2021/08/14 01:26:13;;;;;;;12.63;3.35;;;19.90;74.20;;;;;;5050446;28;20396;-74
2021/08/14 01:28:40;;;;;;;14.20;3.67;;;19.90;74.30;;;;;;5045725;28;20033;-75
2021/08/14 01:31:07;;;;;;;16.38;3.85;;;19.90;74.50;;;;;;5050872;28;20044;-75
2021/08/14 01:33:38;;;;;;;19.00;3.90;;;19.90;75.10;;;;;;5052030;28;20043;-75
2021/08/14 01:36:06;;;;;;;17.05;4.00;;;19.90;75.00;;;;;;5049486;28;20033;-75
2021/08/14 01:38:32;;;;;;;19.73;3.45;;;19.90;75.00;;;;;;5045271;28;20039;-75
2021/08/14 01:40:58;;;;;;;15.98;3.70;;;19.90;74.60;;;;;;5036755;28;20025;-74
2021/08/14 01:43:23;;;;;;;15.48;3.15;;;19.90;74.70;;;;;;5043335;28;20032;-75
2021/08/14 01:45:50;;;;;;;14.85;3.67;;;19.90;74.50;;;;;;5037553;28;20022;-74
2021/08/14 01:48:17;;;;;;;15.13;3.13;;;19.90;74.70;;;;;;5045894;28;20403;-75
2021/08/14 01:50:43;;;;;;;17.33;3.70;;;19.90;74.50;;;;;;5050308;28;20037;-75
2021/08/14 01:53:09;;;;;;;18.48;3.75;;;19.80;74.50;;;;;;5045703;28;20435;-75
2021/08/14 01:55:35;;;;;;;16.50;3.58;;;19.80;74.60;;;;;;5049597;28;20033;-75
2021/08/14 01:58:03;;;;;;;17.33;4.22;;;19.80;74.80;;;;;;5051028;28;20548;-75
2021/08/14 02:00:29;;;;;;;15.30;4.22;;;19.80;74.70;;;;;;5038063;28;20057;-75
2021/08/14 02:02:56;;;;;;;15.88;4.03;;;19.80;74.80;;;;;;5050203;28;20472;-74
2021/08/14 02:05:22;;;;;;;15.45;3.80;;;19.80;75.00;;;;;;5051662;28;20047;-75
2021/08/14 02:07:48;;;;;;;13.93;3.50;;;19.70;75.00;;;;;;5049004;28;20029;-75
2021/08/14 02:10:14;;;;;;;15.57;4.20;;;19.70;75.00;;;;;;5044917;28;20053;-75
2021/08/14 02:12:39;;;;;;;17.27;3.33;;;19.70;75.10;;;;;;5046370;28;20037;-74
2021/08/14 02:15:06;;;;;;;12.10;3.90;;;19.60;75.00;;;;;;5033033;28;20029;-75
2021/08/14 02:17:32;;;;;;;14.35;3.42;;;19.70;75.30;;;;;;5043750;28;20036;-75
2021/08/14 02:19:57;;;;;;;18.90;3.88;;;19.70;75.10;;;;;;5049802;28;20032;-75
2021/08/14 02:22:23;;;;;;;9.93;3.22;;;19.70;75.40;;;;;;5043487;28;20033;-75
2021/08/14 02:24:49;;;;;;;8.48;3.47;;;19.60;75.50;;;;;;5046991;28;20475;-75
2021/08/14 02:27:14;;;;;;;13.57;3.53;;;19.60;75.70;;;;;;5050818;28;20060;-74
2021/08/14 02:29:40;;;;;;;22.20;4.03;;;19.60;75.60;;;;;;5049499;28;20014;-74
2021/08/14 02:32:06;;;;;;;12.68;3.75;;;19.60;76.10;;;;;;5046554;28;20045;-74
2021/08/14 02:34:34;;;;;;;19.63;4.00;;;19.60;75.90;;;;;;5043423;28;20036;-75
2021/08/14 02:37:00;;;;;;;17.83;3.80;;;19.60;76.00;;;;;;5050238;28;20032;-75
2021/08/14 02:39:25;;;;;;;14.88;3.83;;;19.60;75.80;;;;;;5051097;28;20029;-74
2021/08/14 02:41:51;;;;;;;20.98;4.20;;;19.60;75.80;;;;;;5048370;28;20106;-74
2021/08/14 02:44:16;;;;;;;11.15;3.42;;;19.60;76.20;;;;;;5037608;28;20029;-74
2021/08/14 02:46:42;;;;;;;15.32;3.80;;;19.60;76.20;;;;;;5043206;28;20412;-74
2021/08/14 02:49:08;;;;;;;21.23;4.10;;;19.60;76.10;;;;;;5052546;28;20029;-74
2021/08/14 02:51:34;;;;;;;13.98;3.95;;;19.60;76.00;;;;;;5042603;28;20095;-75
2021/08/14 02:54:00;;;;;;;14.20;4.07;;;19.50;76.10;;;;;;5047803;28;20103;-74
2021/08/14 02:56:28;;;;;;;11.43;3.28;;;19.60;76.20;;;;;;5046305;28;20029;-74
2021/08/14 02:58:53;;;;;;;13.35;3.85;;;19.50;75.80;;;;;;5042498;28;20013;-74
2021/08/14 03:01:19;;;;;;;21.40;4.22;;;19.50;76.00;;;;;;5047222;28;20032;-75
2021/08/14 03:03:45;;;;;;;13.38;4.03;;;19.50;76.20;;;;;;5037247;28;20111;-75
2021/08/14 03:06:24;;;;;;;15.15;4.13;;;19.60;76.70;;;;;;5039708;28;20431;-75
2021/08/14 03:08:50;;;;;;;12.52;3.83;;;19.50;76.50;;;;;;5049156;28;20060;-74
2021/08/14 03:11:16;;;;;;;17.17;4.03;;;19.50;76.50;;;;;;5052675;28;20495;-74
2021/08/14 03:13:41;;;;;;;18.15;3.15;;;19.50;76.20;;;;;;5054525;28;20490;-75
2021/08/14 03:16:07;;;;;;;15.15;4.43;;;19.50;76.00;;;;;;5042161;28;20040;-75
2021/08/14 03:18:32;;;;;;;19.25;4.68;;;19.40;76.30;;;;;;5053268;28;20431;-75
2021/08/14 03:20:58;;;;;;;12.85;3.63;;;19.50;76.50;;;;;;5042271;28;20029;-74
2021/08/14 03:23:24;;;;;;;10.13;4.03;;;19.40;76.70;;;;;;5052349;28;20029;-74
2021/08/14 03:25:49;;;;;;;12.48;3.90;;;19.40;76.20;;;;;;5053825;28;20013;-74
2021/08/14 03:28:15;;;;;;;11.10;2.60;;;19.40;77.10;;;;;;5052445;28;20392;-75
2021/08/14 03:30:41;;;;;;;18.45;3.95;;;19.40;76.80;;;;;;5053352;28;20037;-75
2021/08/14 03:33:06;;;;;;;18.58;3.78;;;19.30;77.30;;;;;;5041763;28;20112;-75
2021/08/14 03:35:32;;;;;;;15.05;4.07;;;19.30;77.50;;;;;;5045558;28;20541;-75
2021/08/14 03:37:57;;;;;;;14.40;4.13;;;19.30;77.80;;;;;;5043841;28;20026;-75
2021/08/14 03:40:23;;;;;;;19.85;3.97;;;19.30;78.80;;;;;;5051238;28;20029;-74
2021/08/14 03:42:49;;;;;;;14.10;4.00;;;19.30;78.00;;;;;;5047362;28;20020;-74
2021/08/14 03:45:17;;;;;;;12.48;3.95;;;19.20;78.20;;;;;;5051320;28;20025;-74
2021/08/14 03:47:43;;;;;;;12.90;2.65;;;19.30;78.70;;;;;;5053789;28;20059;-74
2021/08/14 03:50:09;;;;;;;15.95;4.40;;;19.30;78.70;;;;;;5050479;28;20021;-75
2021/08/14 03:52:35;;;;;;;10.88;2.85;;;19.20;79.10;;;;;;5050892;28;20528;-75
2021/08/14 03:55:02;;;;;;;12.50;3.30;;;19.20;79.40;;;;;;5053036;28;20017;-74
2021/08/14 03:57:28;;;;;;;3.63;1.98;;;19.20;79.30;;;;;;5052084;28;20026;-75
2021/08/14 03:59:54;;;;;;;16.10;4.13;;;19.20;78.90;;;;;;5051991;28;20071;-74
2021/08/14 04:02:20;;;;;;;15.27;4.03;;;19.20;79.60;;;;;;5041132;28;20388;-74
2021/08/14 04:04:46;;;;;;;17.80;4.28;;;19.20;79.60;;;;;;5047117;28;20057;-75
2021/08/14 04:07:11;;;;;;;14.45;3.53;;;19.20;80.00;;;;;;5045635;28;20044;-74
2021/08/14 04:09:43;;;;;;;24.23;4.50;;;19.30;79.50;;;;;;5053012;28;20036;-74
2021/08/14 04:12:09;;;;;;;16.83;4.30;;;19.20;79.20;;;;;;5052328;28;20128;-75
2021/08/14 04:14:36;;;;;;;17.45;3.83;;;19.20;79.10;;;;;;5051007;28;20115;-74
2021/08/14 04:17:02;;;;;;;15.82;2.70;;;19.30;79.20;;;;;;5053487;28;20029;-74
2021/08/14 04:19:27;;;;;;;16.05;3.55;;;19.20;78.70;;;;;;5052289;28;20040;-74
2021/08/14 04:22:00;;;;;;;13.32;3.85;;;19.20;79.20;;;;;;5045484;28;20029;-74
2021/08/14 04:24:29;;;;;;;10.57;2.63;;;19.20;79.00;;;;;;5046968;28;20116;-74
2021/08/14 04:26:55;;;;;;;11.23;3.53;;;19.20;79.10;;;;;;5048914;28;20495;-74
2021/08/14 04:29:21;;;;;;;8.38;2.05;;;19.30;79.30;;;;;;5053012;28;20069;-74
2021/08/14 04:31:46;;;;;;;11.45;2.08;;;19.20;79.10;;;;;;5037762;28;20143;-74
2021/08/14 04:34:12;;;;;;;17.23;4.07;;;19.20;79.40;;;;;;5034351;28;20435;-75
2021/08/14 04:36:41;;;;;;;15.73;4.05;;;19.20;80.00;;;;;;5046131;28;20025;-75
2021/08/14 04:39:06;;;;;;;10.95;2.95;;;19.20;80.20;;;;;;5051099;28;20029;-75
2021/08/14 04:41:32;;;;;;;3.58;1.63;;;19.20;80.00;;;;;;5050476;28;20475;-75
2021/08/14 04:43:58;;;;;;;16.25;3.45;;;19.20;79.60;;;;;;5050281;28;20074;-75
2021/08/14 04:46:23;;;;;;;15.40;4.43;;;19.20;80.30;;;;;;5051630;28;20404;-75
2021/08/14 04:48:49;;;;;;;21.58;4.28;;;19.20;80.60;;;;;;5046164;28;20463;-75
2021/08/14 04:51:14;;;;;;;18.70;3.63;;;19.20;80.90;;;;;;5049831;28;20106;-75
2021/08/14 04:53:43;;;;;;;10.13;3.22;;;19.10;80.80;;;;;;5052660;28;20111;-75
2021/08/14 04:56:09;;;;;;;13.30;3.88;;;19.20;80.50;;;;;;5034106;28;20123;-75
2021/08/14 04:58:34;;;;;;;13.40;3.88;;;19.20;81.10;;;;;;5034683;28;20049;-75
2021/08/14 05:01:00;;;;;;;18.27;4.40;;;19.20;81.10;;;;;;5036833;28;20098;-75
2021/08/14 05:03:26;;;;;;;15.50;3.80;;;19.20;81.40;;;;;;5040208;28;20048;-75
2021/08/14 05:05:51;;;;;;;12.10;3.45;;;19.20;81.50;;;;;;5041741;28;20139;-75
2021/08/14 05:08:17;;;;;;;7.75;2.30;;;19.10;81.40;;;;;;5050713;28;20071;-75
2021/08/14 05:10:42;;;;;;;21.17;3.70;;;19.10;81.20;;;;;;5050172;28;20064;-75
2021/08/14 05:13:08;;;;;;;14.93;2.90;;;19.10;81.40;;;;;;5041156;28;20033;-75
2021/08/14 05:15:34;;;;;;;6.50;1.67;;;19.10;81.40;;;;;;5046615;28;20033;-75
2021/08/14 05:17:59;;;;;;;14.20;3.80;;;19.10;81.40;;;;;;5045377;28;20040;-75
2021/08/14 05:20:25;;;;;;;16.15;3.33;;;19.10;82.10;;;;;;5040331;28;20032;-76
2021/08/14 05:22:51;;;;;;;17.10;5.35;;;19.10;81.80;;;;;;5043618;28;20034;-74
2021/08/14 05:25:17;;;;;;;11.85;3.85;;;19.10;82.00;;;;;;5047568;28;20021;-75
2021/08/14 05:27:43;;;;;;;13.68;3.90;;;19.10;82.40;;;;;;5050167;28;20025;-75
2021/08/14 05:30:09;;;;;;;10.43;2.85;;;19.10;82.60;;;;;;5045776;28;20487;-75
2021/08/14 05:32:35;;;;;;;12.73;3.55;;;19.10;82.50;;;;;;5051555;28;20135;-75
2021/08/14 05:35:01;;;;;;;13.95;4.32;;;19.10;82.60;;;;;;5051002;28;20136;-75
2021/08/14 05:37:26;;;;;;;14.45;3.15;;;19.20;83.00;;;;;;5050130;28;20556;-75
2021/08/14 05:39:52;;;;;;;7.97;1.95;;;19.10;82.90;;;;;;5051447;28;20021;-75
2021/08/14 05:42:17;;;;;;;5.05;2.25;;;19.10;83.00;;;;;;5050079;28;20028;-75
2021/08/14 05:44:44;;;;;;;15.88;3.17;;;19.10;83.20;;;;;;5048610;28;20025;-76
2021/08/14 05:47:10;;;;;;;6.57;2.00;;;19.10;83.80;;;;;;5051141;28;20124;-71
2021/08/14 05:49:36;;;;;;;11.65;2.05;;;19.10;83.70;;;;;;5050462;28;20559;-75
2021/08/14 05:52:04;;;;;;;8.57;1.83;;;19.10;83.70;;;;;;5050491;28;20037;-75
2021/08/14 05:54:31;;;;;;;3.03;1.52;;;19.10;84.00;;;;;;5049524;28;20081;-75
2021/08/14 05:56:57;;;;;;;5.43;1.52;;;19.10;84.60;;;;;;5049129;28;20063;-75
2021/08/14 05:59:23;;;;;;;6.18;2.17;;;19.10;84.40;;;;;;5049853;28;20106;-77
2021/08/14 06:01:48;;;;;;;4.13;1.63;;;19.10;84.50;;;;;;5049840;28;20025;-76
2021/08/14 06:04:14;;;;;;;2.03;1.27;;;19.10;84.40;;;;;;5048609;28;20375;-76
2021/08/14 06:06:44;;;;;;;11.45;2.97;;;19.10;84.90;;;;;;5045378;28;20032;-76
2021/08/14 06:09:11;;;;;;;7.10;2.33;;;19.10;84.90;;;;;;5050964;28;20472;-75
2021/08/14 06:11:39;;;;;;;8.18;1.90;;;19.10;85.10;;;;;;5049649;28;20037;-75
2021/08/14 06:14:05;;;;;;;8.00;2.50;;;19.10;85.20;;;;;;5049357;28;20028;-75
2021/08/14 06:16:31;;;;;;;11.25;2.63;;;19.10;85.60;;;;;;5050025;28;20454;-75
2021/08/14 06:18:57;;;;;;;8.45;2.85;;;19.20;85.50;;;;;;5048178;28;20051;-75
2021/08/14 06:21:23;;;;;;;11.75;2.13;;;19.20;85.90;;;;;;5050849;28;20053;-74
2021/08/14 06:23:48;;;;;;;6.13;1.77;;;19.20;86.80;;;;;;5052059;28;20036;-76
2021/08/14 06:26:14;;;;;;;4.28;1.85;;;19.20;86.10;;;;;;5049491;28;20832;-75
2021/08/14 06:28:40;;;;;;;11.93;2.13;;;19.20;86.30;;;;;;5053353;28;20021;-73
2021/08/14 06:31:05;;;;;;;6.85;2.53;;;19.30;86.30;;;;;;5053756;28;20477;-80
2021/08/14 06:33:31;;;;;;;13.23;2.83;;;19.30;86.50;;;;;;5052510;28;20438;-73
2021/08/14 06:35:56;;;;;;;4.68;1.73;;;19.30;86.60;;;;;;5054507;28;20033;-75
2021/08/14 06:38:22;;;;;;;15.15;3.53;;;19.30;86.50;;;;;;5052179;28;20032;-75
2021/08/14 06:40:48;;;;;;;12.40;2.08;;;19.30;86.90;;;;;;5051190;28;20159;-75
2021/08/14 06:43:14;;;;;;;3.47;1.17;;;19.30;86.80;;;;;;5053016;28;20036;-74
2021/08/14 06:45:39;;;;;;;8.27;2.13;;;19.40;87.10;;;;;;5053798;28;20058;-75
2021/08/14 06:48:05;;;;;;;8.75;2.20;;;19.30;87.00;;;;;;5052715;28;20052;-74
2021/08/14 06:50:31;;;;;;;11.45;2.15;;;19.40;87.10;;;;;;5052486;28;20036;-75
2021/08/14 06:52:57;;;;;;;16.60;2.05;;;19.40;86.90;;;;;;5052780;28;20065;-74
2021/08/14 06:55:22;;;;;;;15.85;3.25;;;19.40;87.30;;;;;;5051756;28;20052;-74
2021/08/14 06:57:48;;;;;;;18.98;2.80;;;19.40;87.40;;;;;;5053243;28;20017;-74
2021/08/14 07:00:15;;;;;;;6.38;2.28;;;19.50;87.40;;;;;;5051641;28;20531;-75
2021/08/14 07:02:44;;;;;;;1.73;1.05;;;19.50;88.00;;;;;;5052484;28;20052;-75
2021/08/14 07:05:10;;;;;;;14.00;3.83;;;19.50;87.90;;;;;;5051696;28;20033;-75
2021/08/14 07:07:36;;;;;;;9.35;2.45;;;19.60;88.00;;;;;;5054760;28;20482;-75
2021/08/14 07:10:04;;;;;;;8.98;2.88;;;19.60;88.10;;;;;;5052285;28;20017;-75
2021/08/14 07:12:30;;;;;;;1.42;1.10;;;19.60;88.50;;;;;;5054027;28;20080;-75
2021/08/14 07:14:55;;;;;;;12.60;2.53;;;19.60;88.20;;;;;;5050924;28;20076;-75
2021/08/14 07:17:21;;;;;;;13.30;3.05;;;19.60;88.50;;;;;;5053107;28;20021;-75
2021/08/14 07:19:48;;;;;;;5.30;2.63;;;19.60;88.70;;;;;;5053402;28;20500;-75
2021/08/14 07:22:14;;;;;;;15.98;3.67;;;19.70;89.10;;;;;;5053176;28;20025;-75
2021/08/14 07:24:39;;;;;;;4.88;2.05;;;19.70;88.50;;;;;;5053588;28;20082;-75
2021/08/14 07:27:05;;;;;;;11.65;3.20;;;19.70;88.00;;;;;;5053318;28;20388;-75
2021/08/14 07:29:31;;;;;;;1.70;1.38;;;19.80;88.30;;;;;;5053024;28;20021;-75
2021/08/14 07:31:57;;;;;;;6.68;3.30;;;19.80;88.50;;;;;;5046175;28;20040;-74
2021/08/14 07:34:22;;;;;;;18.63;4.55;;;19.80;88.50;;;;;;5047976;28;20096;-74
2021/08/14 07:36:49;;;;;;;11.88;2.70;;;19.90;88.60;;;;;;5049067;28;20036;-74
2021/08/14 07:39:15;;;;;;;11.23;2.72;;;19.90;88.40;;;;;;5051496;28;20036;-74
2021/08/14 07:41:41;;;;;;;9.05;3.33;;;19.90;88.20;;;;;;5052819;28;20033;-74
2021/08/14 07:44:06;;;;;;;8.48;2.47;;;20.00;88.20;;;;;;5050350;28;20087;-74
2021/08/14 07:46:32;;;;;;;8.48;2.72;;;20.00;88.10;;;;;;5051887;28;20068;-74
2021/08/14 07:48:58;;;;;;;7.95;2.85;;;20.00;88.50;;;;;;5049829;28;20033;-74
2021/08/14 07:51:23;;;;;;;13.50;2.58;;;20.10;88.50;;;;;;5051288;28;20040;-74
2021/08/14 07:53:49;;;;;;;4.68;2.38;;;20.00;88.50;;;;;;5051370;28;20064;-74
2021/08/14 07:56:15;;;;;;;3.38;1.75;;;20.10;88.40;;;;;;5051545;28;20159;-74
2021/08/14 07:58:40;;;;;;;7.20;1.90;;;20.10;88.40;;;;;;5049936;28;20025;-74
2021/08/14 08:01:06;;;;;;;17.83;3.63;;;20.20;88.30;;;;;;5047678;28;20055;-74
2021/08/14 08:03:31;;;;;;;5.30;2.20;;;20.20;88.30;;;;;;5050696;28;20044;-75
2021/08/14 08:05:57;;;;;;;11.38;2.78;;;20.20;88.20;;;;;;5049585;28;20060;-75
2021/08/14 08:08:23;;;;;;;8.55;3.83;;;20.20;88.20;;;;;;5050827;28;20032;-74
2021/08/14 08:10:48;;;;;;;11.50;2.10;;;20.20;88.50;;;;;;5052709;28;20055;-75
2021/08/14 08:13:14;;;;;;;9.02;2.75;;;20.30;88.10;;;;;;5050549;28;20032;-77
2021/08/14 08:15:40;;;;;;;6.88;1.80;;;20.30;88.20;;;;;;5051679;28;20396;-78
2021/08/14 08:18:05;;;;;;;13.15;2.25;;;20.30;87.80;;;;;;5049335;28;20091;-75
2021/08/14 08:20:31;;;;;;;9.18;2.30;;;20.40;87.90;;;;;;5051012;28;20068;-75
2021/08/14 08:22:57;;;;;;;7.63;2.55;;;20.40;88.10;;;;;;5049544;28;20032;-75
2021/08/14 08:25:22;;;;;;;15.85;4.78;;;20.40;88.40;;;;;;5050942;28;20037;-75
2021/08/14 08:27:49;;;;;;;10.23;2.70;;;20.50;88.60;;;;;;5049090;28;20021;-75
2021/08/14 08:30:17;;;;;;;4.78;2.50;;;20.50;88.40;;;;;;5045236;28;20589;-75
2021/08/14 08:32:44;;;;;;;16.15;2.67;;;20.50;88.60;;;;;;5048486;28;20029;-74
2021/08/14 08:35:11;;;;;;;14.15;3.28;;;20.50;88.80;;;;;;5047531;28;20037;-74
2021/08/14 08:37:37;;;;;;;9.40;2.70;;;20.50;88.60;;;;;;5049512;28;20029;-75
2021/08/14 08:40:04;;;;;;;4.88;1.30;;;20.60;88.80;;;;;;5047859;28;20353;-75
2021/08/14 08:42:30;;;;;;;10.07;2.35;;;20.60;88.60;;;;;;5048827;28;20533;-75
2021/08/14 08:44:57;;;;;;;8.35;1.80;;;20.60;88.50;;;;;;5047984;28;20020;-75
2021/08/14 08:47:23;;;;;;;4.65;1.98;;;20.70;88.50;;;;;;5046354;28;20044;-75
2021/08/14 08:49:54;;;;;;;9.00;2.47;;;20.70;88.50;;;;;;5050840;28;20029;-74
2021/08/14 08:52:21;;;;;;;4.35;2.05;;;20.70;88.40;;;;;;5048870;28;20060;-75
2021/08/14 08:54:47;;;;;;;13.52;2.88;;;20.60;88.20;;;;;;5050200;28;20040;-74
2021/08/14 08:57:14;;;;;;;7.80;3.05;;;20.70;87.90;;;;;;5050120;28;20048;-76
2021/08/14 08:59:40;;;;;;;9.15;2.33;;;20.70;87.40;;;;;;5048266;28;20814;-74
2021/08/14 09:02:27;;;;;;;10.43;2.80;;;20.70;86.90;;;;;;5048833;28;20045;-74
2021/08/14 09:05:18;;;;;;;15.07;3.40;;;20.80;86.90;;;;;;5047999;28;20120;-76
2021/08/14 09:07:46;;;;;;;3.55;1.60;;;20.80;86.70;;;;;;5047662;28;20063;-74
2021/08/14 09:10:25;;;;;;;8.98;2.53;;;20.70;86.50;;;;;;5048377;28;20049;-75
2021/08/14 09:12:51;;;;;;;4.93;1.88;;;20.80;86.60;;;;;;5048247;28;20033;-76
2021/08/14 09:15:30;;;;;;;10.55;2.20;;;20.80;86.60;;;;;;5048104;28;20025;-77
2021/08/14 09:18:03;;;;;;;10.90;2.38;;;20.80;86.50;;;;;;5051270;28;20031;-67
2021/08/14 09:20:30;;;;;;;4.00;2.35;;;20.90;86.40;;;;;;5050800;28;20041;-75
2021/08/14 09:23:15;;;;;;;5.03;1.85;;;20.80;86.20;;;;;;5051015;28;20068;-74
2021/08/14 09:25:46;;;;;;;5.45;1.67;;;20.90;86.20;;;;;;5050003;28;20053;-75
2021/08/14 09:28:13;;;;;;;7.15;2.47;;;20.90;86.20;;;;;;5050581;28;20029;-75
2021/08/14 09:30:57;;;;;;;8.70;1.98;;;20.90;86.00;;;;;;5049324;28;20040;-75
2021/08/14 09:33:27;;;;;;;;;;;21.00;86.20;;;;;;5048820;28;20040;-75
2021/08/14 09:36:02;;;;;;;5.85;2.55;;;21.00;86.10;;;;;;5049053;28;19909;-76
2021/08/14 09:38:59;;;;;;;3.90;1.67;;;21.00;86.30;;;;;;5049265;28;20029;-76
2021/08/14 09:41:25;;;;;;;9.13;2.72;;;21.10;86.20;;;;;;5044378;28;20036;-76
2021/08/14 09:43:53;;;;;;;7.60;2.50;;;21.10;86.10;;;;;;5049589;28;20041;-76
2021/08/14 09:46:19;;;;;;;8.52;2.47;;;21.10;85.80;;;;;;5049985;28;20136;-76
2021/08/14 09:48:56;;;;;;;9.15;2.30;;;21.20;85.80;;;;;;5048092;28;20134;-76
2021/08/14 09:51:32;;;;;;;9.40;2.53;;;21.30;85.70;;;;;;5049605;28;20124;-76
2021/08/14 09:54:00;;;;;;;8.30;2.00;;;21.30;84.80;;;;;;5049741;28;20505;-76
2021/08/14 09:56:27;;;;;;;8.95;2.67;;;21.30;84.30;;;;;;5050808;28;20055;-79
2021/08/14 09:58:53;;;;;;;7.13;1.80;;;21.30;84.00;;;;;;5049834;28;20112;-79
2021/08/14 10:01:20;;;;;;;7.63;2.53;;;21.40;83.80;;;;;;5054043;28;20055;-74
2021/08/14 10:03:46;;;;;;;4.88;1.95;;;21.30;83.70;;;;;;5054758;28;20083;-76
2021/08/14 10:06:13;;;;;;;4.88;1.77;;;21.30;83.70;;;;;;5054018;28;20033;-75
2021/08/14 10:08:40;;;;;;;3.83;1.90;;;21.40;83.60;;;;;;5053294;28;20037;-76
2021/08/14 10:11:10;;;;;;;10.55;2.80;;;21.40;83.20;;;;;;5042886;28;20102;-75
2021/08/14 10:13:38;;;;;;;7.70;2.55;;;21.50;83.20;;;;;;5049584;28;20040;-77
2021/08/14 10:16:04;;;;;;;5.13;2.33;;;21.50;82.90;;;;;;5052921;28;20108;-77
2021/08/14 10:18:30;;;;;;;8.63;2.10;;;21.50;83.10;;;;;;5045279;28;20108;-75
2021/08/14 10:20:56;;;;;;;2.25;1.60;;;21.50;82.80;;;;;;5054868;28;20037;-77
2021/08/14 10:23:23;;;;;;;3.78;1.60;;;21.60;82.70;;;;;;5053257;28;20033;-76
2021/08/14 10:25:58;;;;;;;12.00;3.05;;;21.60;82.90;;;;;;5054044;28;20033;-76
2021/08/14 10:28:44;;;;;;;4.70;1.60;;;21.60;82.70;;;;;;5052160;28;20419;-76
2021/08/14 10:31:30;;;;;;;8.85;2.72;;;21.70;82.30;;;;;;5046301;28;20399;-77
2021/08/14 10:33:59;;;;;;;8.35;2.25;;;21.70;82.30;;;;;;5053807;28;20112;-76
2021/08/14 10:36:27;;;;;;;16.58;3.30;;;21.80;82.30;;;;;;5052361;28;20036;-78
2021/08/14 10:38:53;;;;;;;7.25;2.28;;;21.80;81.80;;;;;;5052662;28;20029;-76
2021/08/14 10:41:20;;;;;;;6.32;2.30;;;21.80;81.40;;;;;;5052180;28;20404;-75
2021/08/14 10:43:55;;;;;;;7.80;2.58;;;21.80;81.70;;;;;;5053714;28;20025;-75
2021/08/14 10:46:38;;;;;;;7.82;2.40;;;21.80;81.80;;;;;;5053617;28;20053;-74
2021/08/14 10:49:19;;;;;;;9.90;2.22;;;22.00;81.70;;;;;;5053704;28;20057;-74
2021/08/14 10:51:48;;;;;;;7.45;2.28;;;22.00;81.50;;;;;;5054359;28;20500;-75
2021/08/14 10:54:14;;;;;;;5.47;2.10;;;22.00;81.20;;;;;;5053511;28;20025;-76
2021/08/14 10:56:57;;;;;;;9.82;3.85;;;22.10;81.60;;;;;;5054566;28;20032;-77
2021/08/14 10:59:38;;;;;;;10.27;2.90;;;22.10;81.20;;;;;;5051942;28;20403;-75
2021/08/14 11:02:06;;;;;;;7.00;2.40;;;22.10;81.10;;;;;;5054021;28;20087;-75
2021/08/14 11:04:55;;;;;;;8.13;2.85;;;22.10;81.30;;;;;;5052557;28;20108;-77
2021/08/14 11:07:21;;;;;;;8.75;2.40;;;22.20;81.40;;;;;;5051125;28;20384;-75
2021/08/14 11:09:52;;;;;;;9.25;2.88;;;22.20;80.80;;;;;;5050234;28;20090;-74
2021/08/14 11:12:45;;;;;;;12.98;1.70;;;22.20;80.40;;;;;;5050552;28;20115;-72
2021/08/14 11:15:17;;;;;;;14.60;4.03;;;22.30;80.30;;;;;;5049105;28;20036;-72
2021/08/14 11:17:45;;;;;;;2.97;1.55;;;22.30;80.10;;;;;;5053129;28;20702;-76
2021/08/14 11:20:19;;;;;;;9.70;2.35;;;22.30;79.70;;;;;;5052619;28;20116;-76
2021/08/14 11:22:55;;;;;;;5.38;2.10;;;22.30;79.80;;;;;;5052196;28;20177;-80
2021/08/14 11:25:28;;;;;;;6.15;2.00;;;22.40;80.10;;;;;;5052372;28;20049;-78
2021/08/14 11:28:06;;;;;;;5.43;1.77;;;22.50;79.80;;;;;;5051236;28;20029;-76
2021/08/14 11:30:47;;;;;;;6.53;2.03;;;22.50;79.30;;;;;;5051478;28;20029;-77
2021/08/14 11:33:15;;;;;;;7.20;2.70;;;22.60;79.10;;;;;;5051232;28;20064;-76
2021/08/14 11:35:42;;;;;;;2.55;1.33;;;22.60;79.30;;;;;;5052961;28;20033;-76
2021/08/14 11:38:11;;;;;;;5.00;1.48;;;22.70;79.10;;;;;;5050080;28;20033;-76
2021/08/14 11:40:45;;;;;;;3.78;1.83;;;22.70;78.90;;;;;;5052491;28;20060;-77
2021/08/14 11:43:17;;;;;;;3.95;1.50;;;22.80;78.30;;;;;;5039007;28;20033;-76
2021/08/14 11:45:47;;;;;;;3.70;1.58;;;22.80;77.30;;;;;;5045289;28;20399;-74
2021/08/14 11:48:15;;;;;;;10.35;2.25;;;22.90;75.90;;;;;;5052548;28;20029;-77
2021/08/14 11:50:47;;;;;;;5.28;2.10;;;22.80;75.40;;;;;;5049344;28;20052;-77
2021/08/14 11:53:27;;;;;;;14.40;1.95;;;22.80;75.70;;;;;;5042204;28;20404;-77
2021/08/14 11:56:06;;;;;;;4.05;1.27;;;22.80;75.30;;;;;;5045036;28;20064;-77
2021/08/14 11:58:32;;;;;;;9.73;3.05;;;22.80;75.20;;;;;;5052212;28;20114;-77
2021/08/14 12:00:58;;;;;;;1.83;1.05;;;22.90;75.00;;;;;;5041648;28;20396;-78
2021/08/14 12:03:25;;;;;;;4.20;1.83;;;22.90;74.80;;;;;;5039766;28;20101;-77
2021/08/14 12:05:50;;;;;;;4.60;1.63;;;23.00;74.60;;;;;;5050284;28;20365;-79
2021/08/14 12:08:31;;;;;;;6.18;2.03;;;23.00;74.40;;;;;;5050256;28;20040;-75
2021/08/14 12:11:08;;;;;;;3.50;1.40;;;23.10;73.70;;;;;;5045111;28;20645;-75
2021/08/14 12:13:35;;;;;;;9.00;1.52;;;23.20;73.00;;;;;;5047072;28;20029;-75
2021/08/14 12:16:16;;;;;;;1.20;1.02;;;23.10;72.90;;;;;;5052618;28;20139;-75
2021/08/14 12:18:45;;;;;;;2.83;1.65;;;23.10;72.60;;;;;;5043957;28;20036;-74
2021/08/14 12:21:12;;;;;;;9.65;2.05;;;23.10;72.80;;;;;;5047947;28;20033;-73
2021/08/14 12:23:39;;;;;;;9.27;2.58;;;23.20;72.30;;;;;;5051508;28;20036;-74
2021/08/14 12:26:08;;;;;;;9.73;4.32;;;23.20;72.50;;;;;;5052540;28;20592;-74
2021/08/14 12:28:33;;;;;;;3.30;2.05;;;23.20;72.40;;;;;;5046418;28;20056;-75
2021/08/14 12:31:13;;;;;;;2.53;1.48;;;23.30;72.40;;;;;;5051640;28;20494;-76
2021/08/14 12:33:57;;;;;;;3.60;1.60;;;23.30;71.90;;;;;;5050381;28;20029;-74
2021/08/14 12:36:33;;;;;;;10.63;1.90;;;23.40;71.30;;;;;;5045299;28;20032;-77
2021/08/14 12:38:59;;;;;;;11.65;3.58;;;23.50;70.90;;;;;;5050084;28;20036;-79
2021/08/14 12:41:32;;;;;;;5.25;1.65;;;23.50;70.70;;;;;;5051029;28;20058;-79
2021/08/14 12:43:58;;;;;;;10.93;2.80;;;23.60;70.00;;;;;;5049345;28;20404;-79